createdAt,value
2019-01-23T00:01:12.976Z,58.77
2019-01-23T00:03:42.661Z,60.37
2019-01-23T00:06:12.135Z,60.17
2019-01-23T00:08:41.760Z,59.97
2019-01-23T00:11:11.035Z,61.07
2019-01-23T00:13:40.315Z,59.43
2019-01-23T00:16:09.600Z,62.67
2019-01-23T00:18:38.881Z,61.27
2019-01-23T00:21:08.166Z,63.80
2019-01-23T00:23:37.436Z,66.50
2019-01-23T00:26:06.751Z,67.17
2019-01-23T00:28:42.218Z,60.83
2019-01-23T00:31:07.087Z,68.00
2019-01-23T00:33:36.359Z,59.03
2019-01-23T00:36:05.623Z,57.40
2019-01-23T00:38:34.912Z,56.90
2019-01-23T00:41:04.182Z,65.23
2019-01-23T00:43:33.495Z,62.87
2019-01-23T00:46:02.762Z,66.80
2019-01-23T00:48:32.074Z,62.43
2019-01-23T00:51:01.334Z,59.30
2019-01-23T00:53:30.607Z,56.20
2019-01-23T00:55:59.896Z,65.87
2019-01-23T00:58:29.254Z,61.80
2019-01-23T01:00:58.566Z,60.83
2019-01-23T01:03:27.874Z,67.07
2019-01-23T01:05:57.213Z,58.37
2019-01-23T01:08:26.510Z,60.27
2019-01-23T01:10:55.803Z,67.10
2019-01-23T01:13:25.071Z,61.57
2019-01-23T01:15:54.383Z,63.07
2019-01-23T01:18:23.660Z,59.80
2019-01-23T01:20:52.971Z,64.43
2019-01-23T01:23:22.253Z,53.47
2019-01-23T01:25:51.526Z,57.07
2019-01-23T01:28:22.621Z,55.90
2019-01-23T01:30:51.887Z,60.43
2019-01-23T01:33:21.181Z,65.07
2019-01-23T01:35:50.454Z,64.47
2019-01-23T01:38:19.743Z,63.77
2019-01-23T01:40:49.026Z,63.57
2019-01-23T01:43:18.333Z,61.67
2019-01-23T01:45:47.606Z,68.70
2019-01-23T01:48:16.879Z,67.20
2019-01-23T01:50:46.163Z,65.43
2019-01-23T01:53:15.438Z,69.80
2019-01-23T01:55:44.725Z,59.60
2019-01-23T01:58:13.995Z,64.70
2019-01-23T02:00:43.305Z,64.37
2019-01-23T02:03:15.561Z,62.23
2019-01-23T02:05:43.618Z,65.57
2019-01-23T02:08:12.884Z,65.30
2019-01-23T02:10:42.184Z,62.77
2019-01-23T02:13:11.477Z,66.60
2019-01-23T02:15:40.763Z,65.27
2019-01-23T02:18:10.045Z,59.27
2019-01-23T02:20:39.314Z,64.23
2019-01-23T02:23:10.978Z,65.77
2019-01-23T02:25:40.284Z,62.83
2019-01-23T02:28:09.578Z,60.37
2019-01-23T02:30:38.846Z,64.10
2019-01-23T02:33:08.365Z,61.87
2019-01-23T02:35:37.638Z,58.90
2019-01-23T02:38:06.937Z,54.27
2019-01-23T02:40:36.217Z,58.73
2019-01-23T02:43:05.513Z,59.77
2019-01-23T02:45:34.836Z,59.93
2019-01-23T02:48:04.113Z,54.60
2019-01-23T02:50:34.842Z,56.03
2019-01-23T02:53:04.111Z,54.87
2019-01-23T02:55:33.419Z,61.13
2019-01-23T02:58:02.705Z,53.77
2019-01-23T03:00:32.060Z,57.97
2019-01-23T03:03:01.352Z,54.67
2019-01-23T03:05:30.616Z,51.10
2019-01-23T03:08:00.898Z,59.93
2019-01-23T03:10:30.178Z,55.27
2019-01-23T03:12:59.498Z,55.47
2019-01-23T03:15:28.786Z,56.90
2019-01-23T03:17:58.180Z,55.50
2019-01-23T03:20:27.517Z,50.00
2019-01-23T03:22:56.785Z,53.20
2019-01-23T03:25:26.325Z,52.67
2019-01-23T03:27:55.668Z,53.57
2019-01-23T03:30:25.351Z,57.03
2019-01-23T03:32:54.641Z,52.77
2019-01-23T03:35:24.044Z,55.57
2019-01-23T03:37:53.349Z,54.20
2019-01-23T03:40:23.262Z,49.83
2019-01-23T03:42:52.668Z,60.30
2019-01-23T03:45:21.942Z,53.80
2019-01-23T03:47:51.221Z,54.00
2019-01-23T03:50:21.202Z,55.37
2019-01-23T03:52:50.681Z,55.27
2019-01-23T03:55:20.721Z,49.77
2019-01-23T03:57:50.186Z,55.33
2019-01-23T04:00:21.439Z,51.70
2019-01-23T04:02:52.064Z,56.73
2019-01-23T04:05:21.717Z,54.47
2019-01-23T04:07:51.249Z,51.07
2019-01-23T04:10:20.524Z,51.63
2019-01-23T04:12:49.806Z,50.50
2019-01-23T04:15:19.206Z,50.17
2019-01-23T04:17:48.543Z,48.87
2019-01-23T04:20:20.977Z,55.07
2019-01-23T04:22:50.258Z,50.80
2019-01-23T04:25:19.757Z,46.67
2019-01-23T04:27:49.033Z,52.67
2019-01-23T04:30:21.468Z,47.50
2019-01-23T04:32:50.748Z,54.37
2019-01-23T04:35:20.121Z,50.93
2019-01-23T04:37:49.766Z,49.17
2019-01-23T04:40:19.353Z,55.10
2019-01-23T04:42:48.626Z,48.77
2019-01-23T04:45:18.371Z,48.80
2019-01-23T04:47:47.742Z,57.43
2019-01-23T04:50:17.743Z,49.93
2019-01-23T04:53:05.540Z,54.03
2019-01-23T04:55:36.550Z,50.90
2019-01-23T04:58:05.962Z,47.23
2019-01-23T05:00:35.442Z,51.13
2019-01-23T05:03:04.772Z,52.27
2019-01-23T05:05:34.092Z,46.70
2019-01-23T05:08:03.366Z,51.13
2019-01-23T05:10:32.654Z,43.87
2019-01-23T05:13:01.937Z,46.30
2019-01-23T05:15:31.230Z,45.90
2019-01-23T05:18:00.496Z,46.53
2019-01-23T05:20:29.766Z,44.93
2019-01-23T05:22:59.072Z,48.77
2019-01-23T05:25:28.355Z,46.07
2019-01-23T05:27:57.631Z,43.07
2019-01-23T05:30:26.893Z,48.30
2019-01-23T05:32:56.227Z,41.43
2019-01-23T05:35:25.494Z,49.03
2019-01-23T05:37:54.758Z,45.20
2019-01-23T05:40:24.053Z,41.67
2019-01-23T05:42:53.321Z,41.37
2019-01-23T05:45:22.607Z,47.33
2019-01-23T05:47:51.919Z,46.97
2019-01-23T05:50:21.194Z,45.80
2019-01-23T05:52:50.487Z,44.87
2019-01-23T05:55:19.762Z,39.67
2019-01-23T05:57:49.059Z,44.57
2019-01-23T06:00:20.833Z,43.23
2019-01-23T06:02:50.100Z,49.47
2019-01-23T06:05:20.127Z,49.77
2019-01-23T06:08:11.146Z,48.07
2019-01-23T06:10:41.196Z,42.70
2019-01-23T06:13:12.706Z,44.13
2019-01-23T06:15:43.605Z,45.67
2019-01-23T06:18:13.588Z,47.70
2019-01-23T06:20:43.124Z,47.03
2019-01-23T06:23:13.874Z,45.67
2019-01-23T06:25:44.617Z,49.93
2019-01-23T06:28:14.215Z,39.93
2019-01-23T06:30:43.809Z,42.70
2019-01-23T06:33:13.307Z,47.27
2019-01-23T06:35:42.774Z,39.60
2019-01-23T06:38:12.097Z,41.77
2019-01-23T06:40:41.787Z,41.10
2019-01-23T06:43:11.429Z,41.00
2019-01-23T06:45:42.496Z,52.10
2019-01-23T06:48:12.081Z,44.83
2019-01-23T06:50:42.751Z,47.17
2019-01-23T06:53:14.182Z,46.93
2019-01-23T06:55:43.322Z,46.40
2019-01-23T06:58:13.146Z,47.23
2019-01-23T07:00:43.030Z,48.77
2019-01-23T07:03:12.675Z,44.73
2019-01-23T07:05:42.411Z,52.67
2019-01-23T07:08:12.038Z,46.87
2019-01-23T07:10:41.372Z,49.53
2019-01-23T07:13:10.681Z,46.60
2019-01-23T07:15:39.999Z,44.67
2019-01-23T07:18:09.596Z,43.90
2019-01-23T07:20:38.889Z,48.93
2019-01-23T07:23:08.203Z,50.30
2019-01-23T07:25:37.475Z,50.47
2019-01-23T07:28:06.802Z,48.67
2019-01-23T07:30:42.041Z,43.47
2019-01-23T07:33:11.333Z,51.83
2019-01-23T07:35:40.617Z,46.07
2019-01-23T07:38:09.958Z,44.50
2019-01-23T07:40:39.245Z,45.20
2019-01-23T07:43:08.513Z,47.20
2019-01-23T07:45:37.794Z,46.23
2019-01-23T07:48:07.079Z,47.60
2019-01-23T07:50:36.373Z,47.87
2019-01-23T07:53:06.151Z,51.47
2019-01-23T07:55:35.439Z,49.43
2019-01-23T07:58:04.726Z,52.50
2019-01-23T08:00:34.020Z,48.07
2019-01-23T08:03:03.318Z,45.33
2019-01-23T08:05:32.730Z,50.53
2019-01-23T08:08:02.203Z,48.10
2019-01-23T08:10:31.476Z,50.80
2019-01-23T08:13:00.765Z,46.40
2019-01-23T08:15:35.056Z,49.80
2019-01-23T08:18:05.205Z,48.77
2019-01-23T08:20:34.472Z,50.60
2019-01-23T08:23:03.770Z,51.33
2019-01-23T08:25:33.043Z,50.13
2019-01-23T08:28:02.336Z,44.20
2019-01-23T08:30:38.405Z,50.33
2019-01-23T08:33:02.644Z,50.67
2019-01-23T08:35:31.918Z,49.33
2019-01-23T08:38:01.221Z,52.37
2019-01-23T08:40:30.496Z,50.37
2019-01-23T08:42:59.858Z,45.73
2019-01-23T08:45:29.150Z,43.67
2019-01-23T08:47:58.429Z,47.57
2019-01-23T08:50:31.021Z,46.70
2019-01-23T08:53:00.308Z,51.63
2019-01-23T08:55:29.602Z,50.03
2019-01-23T08:57:58.865Z,48.57
2019-01-23T09:00:28.205Z,54.60
2019-01-23T09:02:57.533Z,53.33
2019-01-23T09:05:26.887Z,51.93
2019-01-23T09:07:56.223Z,57.53
2019-01-23T09:10:25.627Z,52.20
2019-01-23T09:12:54.935Z,51.87
2019-01-23T09:15:24.212Z,49.43
2019-01-23T09:17:53.485Z,46.50
2019-01-23T09:20:22.990Z,47.67
2019-01-23T09:22:52.339Z,44.80
2019-01-23T09:25:23.406Z,40.27
2019-01-23T09:27:52.687Z,44.33
2019-01-23T09:30:37.404Z,43.23
2019-01-23T09:33:34.291Z,49.23
2019-01-23T09:36:39.628Z,47.13
2019-01-23T09:39:33.417Z,39.37
2019-01-23T09:42:29.491Z,42.13
2019-01-23T09:45:31.427Z,40.07
2019-01-23T09:48:27.890Z,48.67
2019-01-23T09:51:43.001Z,45.37
2019-01-23T09:54:15.104Z,51.40
2019-01-23T09:56:47.878Z,50.27
2019-01-23T09:59:17.186Z,47.77
2019-01-23T10:01:46.455Z,45.27
2019-01-23T10:04:36.190Z,50.20
2019-01-23T10:07:07.047Z,46.57
2019-01-23T10:09:39.606Z,43.80
2019-01-23T10:12:09.040Z,49.57
2019-01-23T10:14:38.799Z,49.33
2019-01-23T10:17:08.367Z,51.07
2019-01-23T10:19:37.639Z,52.87
2019-01-23T10:22:06.964Z,51.90
2019-01-23T10:24:36.284Z,52.40
2019-01-23T10:27:05.663Z,53.07
2019-01-23T10:29:35.002Z,49.07
2019-01-23T10:32:04.257Z,60.43
2019-01-23T10:34:33.601Z,48.73
2019-01-23T10:37:02.887Z,48.47
2019-01-23T10:39:32.356Z,43.90
2019-01-23T10:42:01.849Z,53.53
2019-01-23T10:44:31.151Z,54.73
2019-01-23T10:47:00.454Z,48.20
2019-01-23T10:49:29.736Z,51.03
2019-01-23T10:51:59.032Z,51.57
2019-01-23T10:54:28.310Z,59.80
2019-01-23T10:56:57.638Z,50.97
2019-01-23T10:59:26.961Z,53.67
2019-01-23T11:01:56.256Z,50.37
2019-01-23T11:04:25.559Z,50.30
2019-01-23T11:06:54.881Z,53.50
2019-01-23T11:09:24.309Z,57.33
2019-01-23T11:11:53.749Z,61.20
2019-01-23T11:14:23.060Z,50.87
2019-01-23T11:16:52.325Z,50.50
2019-01-23T11:19:21.668Z,50.67
2019-01-23T11:21:50.980Z,58.40
2019-01-23T11:24:20.256Z,54.23
2019-01-23T11:26:49.546Z,48.73
2019-01-23T11:29:18.825Z,53.63
2019-01-23T11:31:48.138Z,56.57
2019-01-23T11:34:17.417Z,61.80
2019-01-23T11:36:46.687Z,55.57
2019-01-23T11:39:16.045Z,57.63
2019-01-23T11:41:45.344Z,53.20
2019-01-23T11:44:14.646Z,60.63
2019-01-23T11:46:43.910Z,60.40
2019-01-23T11:49:13.182Z,64.70
2019-01-23T11:51:42.509Z,63.10
2019-01-23T11:54:11.799Z,61.37
2019-01-23T11:56:41.090Z,60.97
2019-01-23T11:59:10.366Z,59.17
2019-01-23T12:01:39.737Z,61.20
2019-01-23T12:04:09.069Z,60.73
2019-01-23T12:06:38.351Z,55.97
2019-01-23T12:09:10.505Z,58.57
2019-01-23T12:11:39.775Z,56.30
2019-01-23T12:14:09.287Z,61.33
2019-01-23T12:16:38.558Z,56.37
2019-01-23T12:19:07.901Z,63.90
2019-01-23T12:21:37.176Z,60.87
2019-01-23T12:24:06.483Z,57.80
2019-01-23T12:26:35.747Z,52.43
2019-01-23T12:29:05.171Z,61.23
2019-01-23T12:31:35.207Z,55.47
2019-01-23T12:34:04.819Z,63.10
2019-01-23T12:36:34.113Z,61.00
2019-01-23T12:39:05.083Z,59.00
2019-01-23T12:41:34.391Z,64.87
2019-01-23T12:44:03.676Z,64.03
2019-01-23T12:46:32.952Z,57.63
2019-01-23T12:49:02.259Z,60.47
2019-01-23T12:51:31.564Z,61.73
2019-01-23T12:54:00.857Z,64.97
2019-01-23T12:56:30.147Z,62.83
2019-01-23T12:58:59.443Z,59.73
2019-01-23T13:01:28.713Z,58.90
2019-01-23T13:03:57.984Z,55.27
2019-01-23T13:06:27.293Z,56.30
2019-01-23T13:08:56.602Z,56.83
2019-01-23T13:11:25.906Z,57.60
2019-01-23T13:13:55.174Z,55.40
2019-01-23T13:16:25.910Z,51.03
2019-01-23T13:18:55.174Z,53.03
2019-01-23T13:21:24.458Z,51.40
2019-01-23T13:23:53.787Z,56.70
2019-01-23T13:26:23.039Z,55.73
2019-01-23T13:28:52.356Z,56.93
2019-01-23T13:31:21.625Z,57.00
2019-01-23T13:33:51.085Z,52.20
2019-01-23T13:36:20.376Z,48.63
2019-01-23T13:38:49.651Z,57.00
2019-01-23T13:41:18.941Z,64.07
2019-01-23T13:43:48.196Z,51.13
2019-01-23T13:46:17.487Z,51.60
2019-01-23T13:48:46.741Z,56.97
2019-01-23T13:51:16.026Z,56.07
2019-01-23T13:53:45.397Z,61.40
2019-01-23T13:56:14.686Z,52.07
2019-01-23T13:58:43.982Z,58.37
2019-01-23T14:01:13.246Z,57.93
2019-01-23T14:03:42.542Z,60.10
2019-01-23T14:06:11.809Z,56.87
2019-01-23T14:08:41.092Z,63.67
2019-01-23T14:11:10.386Z,67.20
2019-01-23T14:13:39.715Z,58.00
2019-01-23T14:16:08.974Z,61.70
2019-01-23T14:18:38.254Z,58.80
2019-01-23T14:21:07.547Z,62.83
2019-01-23T14:23:36.820Z,57.00
2019-01-23T14:26:06.107Z,58.87
2019-01-23T14:28:36.780Z,59.60
2019-01-23T14:31:06.972Z,60.57
2019-01-23T14:33:36.299Z,59.97
2019-01-23T14:36:05.789Z,64.37
2019-01-23T14:38:36.100Z,61.33
2019-01-23T14:41:07.023Z,62.97
2019-01-23T14:43:36.369Z,68.90
2019-01-23T14:46:06.051Z,63.47
2019-01-23T14:48:35.357Z,66.10
2019-01-23T14:51:04.973Z,64.53
2019-01-23T14:53:34.253Z,65.60
2019-01-23T14:56:03.580Z,65.67
2019-01-23T14:58:32.855Z,74.17
2019-01-23T15:01:02.285Z,64.00
2019-01-23T15:03:31.550Z,59.97
2019-01-23T15:06:00.833Z,64.30
2019-01-23T15:08:30.161Z,67.40
2019-01-23T15:11:00.705Z,71.67
2019-01-23T15:13:30.570Z,64.60
2019-01-23T15:15:59.942Z,60.23
2019-01-23T15:18:30.066Z,61.83
2019-01-23T15:20:59.330Z,64.80
2019-01-23T15:23:28.924Z,59.93
2019-01-23T15:25:58.206Z,65.80
2019-01-23T15:28:27.504Z,62.03
2019-01-23T15:30:56.795Z,61.17
2019-01-23T15:33:26.073Z,65.67
2019-01-23T15:35:55.390Z,67.83
2019-01-23T15:38:24.877Z,59.97
2019-01-23T15:40:54.254Z,62.80
2019-01-23T15:43:23.522Z,61.50
2019-01-23T15:45:52.965Z,58.73
2019-01-23T15:48:22.226Z,72.07
2019-01-23T15:50:51.545Z,60.67
2019-01-23T15:53:21.576Z,60.70
2019-01-23T15:55:50.905Z,62.07
2019-01-23T15:58:20.199Z,62.37
2019-01-23T16:00:49.457Z,60.97
2019-01-23T16:03:18.788Z,68.60
2019-01-23T16:05:49.161Z,58.80
2019-01-23T16:08:18.496Z,64.20
2019-01-23T16:10:49.256Z,61.93
2019-01-23T16:13:18.530Z,67.97
2019-01-23T16:15:47.829Z,54.57
2019-01-23T16:18:17.905Z,57.77
2019-01-23T16:20:47.667Z,60.87
2019-01-23T16:23:17.307Z,62.37
2019-01-23T16:25:47.031Z,57.07
2019-01-23T16:28:16.498Z,52.20
2019-01-23T16:30:46.299Z,61.63
2019-01-23T16:33:15.602Z,59.93
2019-01-23T16:35:44.868Z,66.07
2019-01-23T16:38:14.375Z,57.77
2019-01-23T16:40:44.743Z,62.40
2019-01-23T16:43:14.121Z,60.80
2019-01-23T16:45:43.381Z,52.57
2019-01-23T16:48:12.716Z,55.17
2019-01-23T16:50:41.979Z,54.83
2019-01-23T16:53:11.254Z,59.93
2019-01-23T16:55:40.667Z,55.10
2019-01-23T16:58:10.371Z,51.80
2019-01-23T17:00:39.857Z,58.47
2019-01-23T17:03:09.537Z,59.00
2019-01-23T17:05:38.851Z,64.20
2019-01-23T17:08:09.654Z,60.27
2019-01-23T17:10:39.003Z,59.37
2019-01-23T17:13:09.908Z,63.80
2019-01-23T17:15:39.205Z,55.40
2019-01-23T17:18:09.731Z,59.93
2019-01-23T17:20:41.578Z,58.07
2019-01-23T17:23:10.843Z,61.57
2019-01-23T17:25:40.252Z,58.43
2019-01-23T17:28:11.110Z,56.07
2019-01-23T17:30:40.413Z,62.10
2019-01-23T17:33:09.689Z,57.63
2019-01-23T17:35:38.977Z,55.57
2019-01-23T17:38:08.482Z,58.97
2019-01-23T17:40:37.767Z,57.47
2019-01-23T17:43:07.251Z,64.83
2019-01-23T17:45:38.817Z,62.73
2019-01-23T17:48:11.125Z,56.87
2019-01-23T17:51:07.227Z,58.03
2019-01-23T17:53:36.524Z,54.57
2019-01-23T17:56:06.025Z,62.70
2019-01-23T17:58:35.323Z,57.97
2019-01-23T18:01:04.971Z,53.07
2019-01-23T18:03:34.493Z,53.33
2019-01-23T18:06:03.928Z,61.70
2019-01-23T18:08:33.199Z,56.60
2019-01-23T18:11:02.465Z,63.57
2019-01-23T18:13:33.719Z,61.63
2019-01-23T18:16:14.615Z,63.23
2019-01-23T18:18:43.905Z,65.40
2019-01-23T18:21:14.649Z,56.00
2019-01-23T18:23:45.483Z,59.37
2019-01-23T18:26:14.807Z,62.00
2019-01-23T18:28:44.114Z,56.30
2019-01-23T18:31:30.825Z,63.50
2019-01-23T18:34:52.962Z,63.97
2019-01-23T18:37:47.506Z,63.20
2019-01-23T18:41:21.958Z,64.93
2019-01-23T18:44:20.150Z,63.40
2019-01-23T18:47:32.578Z,66.57
2019-01-23T18:50:36.627Z,65.23
2019-01-23T18:53:06.281Z,64.47
2019-01-23T18:55:39.053Z,66.87
2019-01-23T18:58:08.418Z,61.20
2019-01-23T19:00:40.717Z,67.50
2019-01-23T19:03:11.829Z,63.80
2019-01-23T19:05:41.146Z,59.20
2019-01-23T19:08:11.748Z,66.07
2019-01-23T19:10:42.065Z,98.13
2019-01-23T19:13:11.361Z,60.67
2019-01-23T19:15:40.733Z,64.47
2019-01-23T19:18:10.008Z,72.20
2019-01-23T19:20:39.698Z,63.47
2019-01-23T19:23:09.069Z,62.80
2019-01-23T19:25:38.360Z,54.83
2019-01-23T19:28:07.764Z,61.13
2019-01-23T19:30:37.087Z,66.63
2019-01-23T19:33:06.795Z,61.40
2019-01-23T19:35:36.071Z,54.37
2019-01-23T19:38:06.107Z,60.90
2019-01-23T19:40:35.447Z,63.60
2019-01-23T19:43:05.043Z,59.93
2019-01-23T19:45:34.356Z,58.17
2019-01-23T19:48:03.781Z,61.20
2019-01-23T19:50:33.115Z,58.77
2019-01-23T19:53:04.423Z,62.37
2019-01-23T19:55:33.881Z,64.87
2019-01-23T19:58:04.578Z,63.47
2019-01-23T20:00:34.005Z,60.20
2019-01-23T20:03:03.664Z,68.30
2019-01-23T20:05:34.521Z,59.93
2019-01-23T20:08:04.411Z,63.00
2019-01-23T20:10:33.695Z,66.43
2019-01-23T20:13:02.984Z,64.10
2019-01-23T20:15:32.531Z,59.80
2019-01-23T20:18:06.261Z,65.67
2019-01-23T20:20:35.550Z,64.30
2019-01-23T20:23:04.957Z,62.93
2019-01-23T20:25:34.321Z,68.67
2019-01-23T20:28:05.699Z,70.80
2019-01-23T20:30:37.891Z,66.93
2019-01-23T20:33:07.430Z,64.97
2019-01-23T20:35:36.749Z,63.00
2019-01-23T20:38:06.553Z,65.60
2019-01-23T20:40:37.226Z,60.57
2019-01-23T20:43:08.534Z,62.77
2019-01-23T20:45:37.978Z,56.43
2019-01-23T20:48:10.702Z,62.80
2019-01-23T20:50:41.206Z,61.40
2019-01-23T20:53:10.470Z,57.10
2019-01-23T20:55:40.359Z,57.33
2019-01-23T20:58:09.905Z,60.97
2019-01-23T21:00:39.440Z,62.17
2019-01-23T21:03:09.196Z,53.80
2019-01-23T21:05:39.401Z,57.03
2019-01-23T21:08:09.046Z,57.13
2019-01-23T21:10:38.760Z,58.93
2019-01-23T21:13:08.637Z,55.80
2019-01-23T21:15:38.962Z,68.20
2019-01-23T21:18:08.709Z,56.53
2019-01-23T21:20:40.327Z,62.80
2019-01-23T21:23:11.257Z,62.33
2019-01-23T21:25:40.859Z,55.50
2019-01-23T21:28:10.123Z,62.40
2019-01-23T21:30:39.517Z,56.93
2019-01-23T21:33:09.627Z,62.33
2019-01-23T21:35:40.238Z,67.40
2019-01-23T21:38:09.523Z,61.83
2019-01-23T21:40:38.802Z,56.43
2019-01-23T21:43:10.072Z,63.80
2019-01-23T21:45:41.115Z,65.63
2019-01-23T21:48:10.642Z,62.30
2019-01-23T21:50:40.533Z,55.27
2019-01-23T21:53:10.141Z,58.13
2019-01-23T21:55:39.548Z,53.83
2019-01-23T21:58:08.841Z,58.50
2019-01-23T22:00:49.549Z,61.17
2019-01-23T22:03:20.226Z,64.83
2019-01-23T22:05:50.758Z,64.30
2019-01-23T22:08:20.068Z,55.07
2019-01-23T22:10:49.388Z,56.90
2019-01-23T22:13:19.094Z,64.87
2019-01-23T22:15:54.600Z,62.47
2019-01-23T22:18:23.982Z,60.83
2019-01-23T22:20:53.287Z,65.93
2019-01-23T22:23:22.654Z,64.43
2019-01-23T22:25:51.950Z,65.70
2019-01-23T22:28:23.206Z,60.03
2019-01-23T22:30:52.696Z,60.97
2019-01-23T22:33:22.064Z,59.43
2019-01-23T22:35:51.333Z,60.37
2019-01-23T22:38:20.646Z,59.73
2019-01-23T22:40:49.978Z,56.47
2019-01-23T22:43:19.472Z,58.27
2019-01-23T22:45:49.996Z,61.83
2019-01-23T22:48:19.859Z,63.70
2019-01-23T22:50:49.521Z,64.27
2019-01-23T22:53:19.244Z,62.33
2019-01-23T22:55:49.036Z,57.07
2019-01-23T22:58:18.671Z,62.90
2019-01-23T23:01:18.562Z,68.70
2019-01-23T23:03:48.386Z,62.70
2019-01-23T23:06:17.763Z,61.90
2019-01-23T23:08:47.756Z,65.87
2019-01-23T23:11:17.189Z,58.67
2019-01-23T23:13:46.624Z,66.10
2019-01-23T23:16:16.205Z,60.87
2019-01-23T23:18:45.693Z,66.77
2019-01-23T23:21:15.256Z,66.30
2019-01-23T23:23:44.665Z,58.33
2019-01-23T23:26:14.156Z,63.40
2019-01-23T23:28:43.813Z,61.47
2019-01-23T23:31:13.304Z,57.33
2019-01-23T23:33:43.290Z,68.43
2019-01-23T23:36:33.368Z,63.33
2019-01-23T23:39:03.150Z,60.87
2019-01-23T23:41:32.545Z,56.53
2019-01-23T23:44:01.825Z,59.80
2019-01-23T23:46:31.094Z,57.60
2019-01-23T23:49:00.433Z,59.37
2019-01-23T23:51:29.714Z,61.23
2019-01-23T23:53:59.017Z,63.77
2019-01-23T23:56:28.295Z,68.40
2019-01-23T23:58:57.610Z,60.57
